createdAt,value
2014-09-08T06:23:01.921Z,101591
2014-09-08T06:32:02.564Z,101588
2014-09-08T06:40:03.174Z,101582
2014-09-08T06:49:03.831Z,101576
2014-09-08T06:57:04.440Z,101592
2014-09-08T07:06:05.083Z,101589
2014-09-08T07:15:05.758Z,101598
2014-09-08T07:24:06.414Z,101598
2014-09-08T07:32:07.023Z,101612
2014-09-08T07:38:07.519Z,101598
2014-09-08T07:47:08.177Z,101607
2014-09-08T11:57:02.480Z,101647
2014-09-08T12:05:03.088Z,101635
2014-09-08T12:14:18.638Z,101636
2014-09-08T12:22:19.249Z,101601
2014-09-08T12:32:19.955Z,101601
2014-09-08T12:41:20.612Z,101607
2014-09-08T12:49:21.220Z,101607
2014-09-08T12:57:21.815Z,101601
2014-09-08T13:06:22.488Z,101598
2014-09-08T13:15:23.147Z,101601
2014-09-08T13:23:23.740Z,101601
2014-09-08T13:32:24.412Z,101601
2014-09-08T13:40:25.007Z,101607
2014-09-08T13:49:25.680Z,101601
2014-09-08T13:56:26.226Z,101589
2014-09-08T14:04:26.834Z,101601
2014-09-08T14:12:27.443Z,101607
2014-09-08T14:21:28.102Z,101601
2014-09-08T14:28:28.661Z,101604
2014-09-08T14:34:29.157Z,101604
2014-09-08T14:43:29.815Z,101615
2014-09-08T14:51:30.424Z,101607
2014-09-08T15:00:31.082Z,101607
2014-09-08T15:09:31.739Z,101630
2014-09-08T15:18:32.399Z,101633
2014-09-08T15:25:32.957Z,101633
2014-09-08T15:33:33.568Z,101639
2014-09-08T15:41:34.160Z,101644
2014-09-08T15:49:34.770Z,101644
2014-09-08T15:58:35.428Z,101644
2014-09-08T16:06:36.036Z,101626
2014-09-08T16:14:36.647Z,101641
2014-09-08T16:22:37.256Z,101638
2014-09-08T16:31:37.912Z,101638
2014-09-08T16:40:38.571Z,101632
2014-09-08T16:47:39.115Z,101635
2014-09-08T16:55:39.725Z,101632
2014-09-08T17:08:33.125Z,101635
2014-09-08T17:16:33.734Z,101632
2014-09-08T17:23:34.279Z,101641
2014-09-08T17:30:34.839Z,101638
2014-09-08T17:37:35.384Z,101647
2014-09-08T17:45:35.993Z,101641
2014-09-08T17:51:36.490Z,101635
2014-09-08T18:00:37.146Z,101632
2014-09-08T18:08:37.756Z,101632
2014-09-08T18:17:38.414Z,101644
2014-09-08T18:25:39.007Z,101659
2014-09-08T18:34:39.666Z,101650
2014-09-08T18:43:40.323Z,101667
2014-09-08T18:52:40.981Z,101655
2014-09-08T19:01:41.640Z,101667
2014-09-08T19:10:42.296Z,101655
2014-09-08T19:19:42.955Z,101667
2014-09-08T19:29:43.663Z,101667
2014-09-08T19:37:44.467Z,101650
2014-09-08T19:44:45.095Z,101661
2014-09-08T19:52:45.706Z,101679
2014-09-08T20:01:46.366Z,101667
2014-09-08T20:09:46.976Z,101673
2014-09-08T20:18:47.633Z,101682
2014-09-08T20:27:48.291Z,101676
2014-09-08T20:36:48.951Z,101667
2014-09-08T20:45:49.592Z,101670
2014-09-08T20:54:50.249Z,101670
2014-09-08T21:01:50.810Z,101658
2014-09-08T21:08:51.356Z,101667
2014-09-08T21:16:51.964Z,101655
2014-09-08T21:23:52.508Z,101667
2014-09-08T21:35:09.515Z,101684
2014-09-08T21:41:10.011Z,101684
2014-09-08T21:49:10.620Z,101676
2014-09-08T21:58:11.277Z,101684
2014-09-08T22:06:11.873Z,101687
2014-09-08T22:14:12.480Z,101687
2014-09-08T22:22:13.088Z,101684
2014-09-08T22:31:13.748Z,101682
2014-09-08T22:39:14.341Z,101673
2014-09-08T23:10:31.416Z,101701
2014-09-08T23:19:32.075Z,101701
2014-09-08T23:28:32.717Z,101701
2014-09-08T23:34:33.213Z,101683
2014-09-08T23:44:33.920Z,101695
2014-09-08T23:51:34.480Z,101692
2014-09-08T23:59:35.074Z,101681
